createdAt,value
2022-11-16T08:54:52.313Z,12.72
2022-11-16T08:55:53.693Z,13.03
2022-11-16T08:56:55.156Z,12.61
2022-11-16T08:57:56.572Z,12.75
2022-11-16T08:58:59.425Z,12.45
2022-11-16T09:00:04.275Z,12.88
2022-11-16T09:01:14.768Z,13.51
2022-11-16T09:02:16.219Z,13.84
2022-11-16T09:03:17.613Z,13.95
2022-11-16T09:04:19.001Z,14.98
2022-11-16T09:05:23.125Z,15.97
2022-11-16T09:06:25.865Z,17.02
2022-11-16T09:07:27.312Z,17.58
2022-11-16T09:08:28.700Z,18.26
2022-11-16T09:09:30.108Z,18.73
2022-11-16T09:10:35.817Z,18.68
2022-11-16T09:11:37.479Z,19.03
2022-11-16T09:12:39.124Z,19.56
2022-11-16T09:13:40.540Z,20.24
2022-11-16T09:14:42.208Z,20.86
2022-11-16T09:15:44.949Z,21.06
2022-11-16T09:16:46.327Z,21.29
2022-11-16T09:17:47.716Z,20.90
2022-11-16T09:18:51.099Z,20.03
2022-11-16T09:19:52.492Z,20.61
2022-11-16T09:20:57.701Z,21.26
2022-11-16T09:21:59.121Z,20.98
2022-11-16T09:23:00.560Z,20.23
2022-11-16T09:24:03.023Z,20.79
2022-11-16T09:25:05.137Z,20.98
2022-11-16T09:26:06.656Z,20.70
2022-11-16T09:27:08.318Z,20.27
2022-11-16T09:28:11.073Z,19.69
2022-11-16T09:29:14.683Z,18.18
2022-11-16T09:30:17.511Z,16.96
2022-11-16T09:31:23.148Z,17.43
2022-11-16T09:32:25.019Z,19.03
2022-11-16T09:33:28.528Z,18.71
2022-11-16T09:34:30.108Z,20.04
2022-11-16T09:35:33.356Z,20.98
2022-11-16T09:36:38.542Z,21.25
2022-11-16T09:37:39.946Z,22.04
2022-11-16T09:39:19.002Z,23.36
2022-11-16T09:40:06.380Z,23.75
2022-11-16T09:41:16.700Z,23.74
2022-11-16T09:42:36.910Z,23.15
2022-11-16T09:43:53.536Z,21.25
2022-11-16T09:45:05.131Z,21.13
2022-11-16T09:46:18.087Z,19.25
2022-11-16T09:47:25.497Z,18.37
2022-11-16T09:48:27.730Z,17.73
2022-11-16T09:49:33.228Z,17.47
2022-11-16T09:51:01.712Z,16.15
2022-11-16T09:52:08.349Z,16.30
2022-11-16T09:53:20.393Z,16.57
2022-11-16T09:54:30.563Z,15.85
2022-11-16T09:55:46.707Z,15.42
2022-11-16T09:56:53.725Z,14.82
2022-11-16T09:57:59.549Z,14.15
2022-11-16T09:59:36.270Z,13.68
2022-11-16T10:00:41.526Z,13.56
2022-11-16T10:01:49.103Z,13.23
2022-11-16T10:03:01.246Z,13.09
2022-11-16T10:04:17.320Z,12.54
2022-11-16T10:05:28.038Z,12.35
2022-11-16T10:06:41.651Z,12.12
2022-11-16T10:07:50.320Z,12.07
2022-11-16T10:08:56.549Z,11.84
2022-11-16T10:10:02.370Z,12.02
2022-11-16T10:11:12.287Z,12.10
2022-11-16T10:12:37.894Z,11.81
2022-11-16T10:14:04.190Z,11.90
2022-11-16T10:15:36.731Z,11.64
2022-11-16T10:16:48.477Z,11.75
2022-11-16T10:18:11.761Z,12.76
2022-11-16T10:19:25.569Z,13.09
2022-11-16T10:20:45.647Z,13.31
2022-11-16T10:22:14.783Z,13.53
2022-11-16T10:23:22.310Z,14.04
2022-11-16T10:24:50.897Z,13.68
2022-11-16T10:26:27.089Z,14.12
2022-11-16T10:27:32.800Z,13.79
2022-11-16T10:28:53.001Z,13.94
2022-11-16T10:30:03.823Z,13.78
2022-11-16T10:31:37.763Z,13.30
2022-11-16T10:33:10.883Z,12.65
2022-11-16T10:34:22.774Z,12.78
2022-11-16T10:35:44.192Z,12.29
2022-11-16T10:36:46.145Z,12.99
2022-11-16T10:37:51.897Z,14.80
2022-11-16T10:38:59.742Z,14.68
2022-11-16T10:40:15.238Z,14.30
2022-11-16T10:41:18.966Z,14.75
2022-11-16T10:42:30.843Z,16.18
2022-11-16T10:43:33.235Z,16.35
2022-11-16T10:44:50.248Z,16.69
2022-11-16T10:46:04.557Z,16.85
2022-11-16T10:47:53.560Z,18.70
2022-11-16T10:49:16.717Z,18.80
2022-11-16T10:50:33.206Z,18.85
2022-11-16T10:51:34.792Z,19.16
2022-11-16T10:52:36.148Z,17.36
2022-11-16T10:53:47.190Z,16.51
2022-11-16T10:54:48.590Z,16.45
2022-11-16T10:56:09.659Z,15.73
2022-11-16T10:57:17.738Z,16.14
2022-11-16T10:58:19.087Z,15.55
2022-11-16T10:59:21.367Z,15.44
2022-11-16T11:00:41.657Z,15.25
2022-11-16T11:01:51.058Z,14.54
2022-11-16T11:02:52.392Z,13.49
2022-11-16T11:03:54.058Z,13.29
2022-11-16T11:05:02.504Z,13.33
2022-11-16T11:06:04.328Z,13.23
2022-11-16T11:07:31.735Z,13.00
2022-11-16T11:08:33.327Z,12.98
2022-11-16T11:09:38.828Z,13.10
2022-11-16T11:10:41.907Z,14.54
2022-11-16T11:12:16.123Z,15.80
2022-11-16T11:13:26.957Z,16.82
2022-11-16T11:14:28.358Z,15.52
2022-11-16T11:15:29.912Z,16.46
2022-11-16T11:16:31.660Z,15.64
2022-11-16T11:17:35.384Z,15.69
2022-11-16T11:18:36.909Z,17.00
2022-11-16T11:19:38.321Z,16.45
2022-11-16T11:20:45.463Z,17.58
2022-11-16T11:21:47.380Z,17.87
2022-11-16T11:22:57.865Z,18.99
2022-11-16T11:24:37.284Z,18.29
2022-11-16T11:25:34.509Z,18.75
2022-11-16T11:26:40.324Z,18.03
2022-11-16T11:27:41.822Z,16.91
2022-11-16T11:28:53.345Z,15.54
2022-11-16T11:29:58.597Z,16.52
2022-11-16T11:31:03.665Z,15.90
2022-11-16T11:32:08.157Z,15.33
2022-11-16T11:33:12.646Z,15.98
2022-11-16T11:34:29.063Z,16.04
2022-11-16T11:35:32.819Z,15.40
2022-11-16T11:36:40.402Z,14.45
2022-11-16T11:37:42.155Z,14.14
2022-11-16T11:39:12.766Z,13.69
2022-11-16T11:40:23.972Z,13.32
2022-11-16T11:41:28.421Z,13.05
2022-11-16T11:42:29.911Z,13.20
2022-11-16T11:43:34.241Z,13.18
2022-11-16T11:44:50.186Z,13.12
2022-11-16T11:46:03.625Z,13.20
2022-11-16T11:48:57.146Z,13.91
2022-11-16T11:50:16.575Z,13.82
2022-11-16T11:51:26.934Z,14.40
2022-11-16T11:52:39.108Z,14.89
2022-11-16T11:53:51.721Z,14.84
2022-11-16T11:54:56.038Z,15.10
2022-11-16T11:55:59.675Z,15.21
2022-11-16T11:57:03.048Z,14.94
2022-11-16T11:58:06.142Z,15.23
2022-11-16T11:59:18.522Z,14.89
2022-11-16T12:00:20.327Z,15.09
2022-11-16T12:01:37.811Z,15.22
2022-11-16T12:03:16.698Z,15.30
2022-11-16T12:04:44.520Z,15.94
2022-11-16T12:06:05.669Z,15.88
2022-11-16T12:07:26.831Z,14.87
2022-11-16T12:08:43.429Z,14.62
2022-11-16T12:10:09.150Z,15.34
2022-11-16T12:11:24.846Z,15.71
2022-11-16T12:12:38.157Z,16.38
2022-11-16T12:13:59.434Z,16.83
2022-11-16T12:15:31.141Z,17.77
2022-11-16T12:16:50.767Z,17.18
2022-11-16T12:18:02.671Z,16.31
2022-11-16T12:19:41.818Z,16.41
2022-11-16T12:21:21.085Z,17.27
2022-11-16T12:22:25.391Z,16.35
2022-11-16T12:23:47.883Z,16.46
2022-11-16T12:24:56.695Z,16.39
2022-11-16T12:26:21.387Z,15.43
2022-11-16T12:27:51.797Z,15.26
2022-11-16T12:29:16.659Z,15.86
2022-11-16T12:30:21.105Z,15.68
2022-11-16T12:31:25.511Z,16.30
2022-11-16T12:32:35.976Z,16.07
2022-11-16T12:34:01.276Z,16.17
2022-11-16T12:35:35.068Z,16.48
2022-11-16T12:36:51.232Z,15.77
2022-11-16T12:38:14.077Z,16.72
2022-11-16T12:39:24.316Z,16.56
2022-11-16T12:40:30.745Z,16.84
2022-11-16T12:41:44.456Z,16.90
2022-11-16T12:43:10.280Z,16.95
2022-11-16T12:44:21.807Z,17.26
2022-11-16T12:45:41.035Z,17.46
2022-11-16T12:47:00.757Z,17.57
2022-11-16T12:48:08.368Z,17.46
2022-11-16T12:49:18.614Z,17.42
2022-11-16T12:50:22.876Z,17.50
2022-11-16T12:51:33.371Z,17.24
2022-11-16T12:53:08.329Z,16.94
2022-11-16T12:54:35.925Z,16.93
2022-11-16T12:55:44.871Z,16.90
2022-11-16T12:57:18.008Z,16.68
2022-11-16T12:58:38.716Z,16.48
2022-11-16T12:59:58.520Z,16.19
2022-11-16T13:01:15.029Z,15.81
2022-11-16T13:02:53.470Z,15.88
2022-11-16T13:04:16.208Z,15.73
2022-11-16T13:05:44.695Z,15.83
2022-11-16T13:06:52.248Z,16.01
2022-11-16T13:08:00.548Z,15.90
2022-11-16T13:09:10.124Z,16.16
2022-11-16T13:10:19.792Z,16.23
2022-11-16T13:11:35.735Z,16.59
2022-11-16T13:12:38.649Z,15.84
2022-11-16T13:13:42.160Z,14.94
2022-11-16T13:14:48.002Z,14.58
2022-11-16T13:15:50.821Z,15.31
2022-11-16T13:16:53.652Z,15.18
2022-11-16T13:17:59.125Z,14.62
2022-11-16T13:19:03.954Z,14.06
2022-11-16T13:20:20.336Z,14.02
2022-11-16T13:21:34.761Z,13.77
2022-11-16T13:22:38.855Z,13.45
2022-11-16T13:23:55.498Z,13.14
2022-11-16T13:25:27.470Z,13.11
2022-11-16T13:26:43.347Z,12.99
2022-11-16T13:27:57.406Z,12.87
2022-11-16T13:29:04.588Z,12.91
2022-11-16T13:30:19.789Z,12.78
2022-11-16T13:32:02.720Z,12.66
2022-11-16T13:33:30.303Z,12.66
2022-11-16T13:34:33.812Z,12.57
2022-11-16T13:35:38.691Z,12.46
2022-11-16T13:36:45.270Z,12.52
2022-11-16T13:37:51.969Z,12.54
2022-11-16T13:38:56.835Z,12.54
2022-11-16T13:39:58.531Z,12.47
2022-11-16T13:41:30.151Z,12.52
2022-11-16T13:42:34.475Z,12.56
2022-11-16T13:43:35.885Z,12.49
2022-11-16T13:44:37.498Z,12.48
2022-11-16T13:45:42.788Z,12.35
2022-11-16T13:46:55.776Z,12.36
2022-11-16T13:47:59.067Z,12.44
2022-11-16T13:49:00.459Z,12.70
2022-11-16T13:50:10.315Z,13.50
2022-11-16T13:51:25.477Z,14.56
2022-11-16T13:53:31.858Z,15.14
2022-11-16T13:55:32.002Z,15.95
2022-11-16T13:56:48.816Z,16.50
2022-11-16T13:57:53.360Z,16.48
2022-11-16T13:58:58.164Z,15.77
2022-11-16T14:00:02.947Z,15.26
2022-11-16T14:01:10.609Z,15.00
2022-11-16T14:02:36.583Z,14.35
2022-11-16T14:03:40.012Z,13.92
2022-11-16T14:04:52.975Z,13.53
2022-11-16T14:05:54.738Z,13.40
2022-11-16T14:06:58.916Z,13.16
2022-11-16T14:08:20.291Z,12.89
2022-11-16T14:09:54.071Z,12.74
2022-11-16T14:10:59.155Z,12.65
2022-11-16T14:12:43.488Z,12.63
2022-11-16T14:13:48.313Z,12.53
2022-11-16T14:15:04.420Z,12.45
2022-11-16T14:16:15.012Z,12.41
2022-11-16T14:17:55.084Z,12.62
2022-11-16T14:19:00.148Z,13.43
2022-11-16T14:20:01.860Z,14.08
2022-11-16T14:21:24.903Z,14.50
2022-11-16T14:22:40.424Z,14.96
2022-11-16T14:24:13.339Z,14.89
2022-11-16T14:25:34.612Z,15.30
2022-11-16T14:26:57.663Z,15.39
2022-11-16T14:28:40.916Z,15.03
2022-11-16T14:30:05.791Z,14.58
2022-11-16T14:31:28.129Z,14.54
2022-11-16T14:32:46.706Z,14.70
2022-11-16T14:33:54.528Z,14.46
2022-11-16T14:34:58.275Z,14.86
2022-11-16T14:36:01.067Z,14.63
2022-11-16T14:37:03.343Z,14.62
2022-11-16T14:38:07.660Z,14.59
2022-11-16T14:39:14.598Z,14.62
2022-11-16T14:40:18.430Z,14.25
2022-11-16T14:41:22.873Z,14.23
2022-11-16T14:42:29.888Z,14.10
2022-11-16T14:43:42.470Z,14.18
2022-11-16T14:44:44.563Z,13.75
2022-11-16T14:45:52.252Z,14.06
2022-11-16T14:46:54.125Z,14.34
2022-11-16T14:48:18.905Z,14.28
2022-11-16T14:49:21.481Z,14.23
2022-11-16T14:50:24.624Z,14.40
2022-11-16T14:51:31.785Z,14.06
2022-11-16T14:52:47.660Z,13.92
2022-11-16T14:53:53.092Z,14.09
2022-11-16T14:55:00.148Z,14.21
2022-11-16T14:56:13.310Z,13.96
2022-11-16T14:57:22.998Z,13.76
2022-11-16T14:58:24.399Z,13.42
2022-11-16T14:59:26.367Z,13.53
2022-11-16T15:00:30.186Z,13.78
2022-11-16T15:01:35.608Z,13.67
2022-11-16T15:02:38.235Z,14.11
2022-11-16T15:04:11.284Z,13.90
2022-11-16T15:05:21.547Z,13.98
2022-11-16T15:06:25.955Z,13.71
2022-11-16T15:07:29.858Z,13.36
2022-11-16T15:08:54.405Z,12.90
2022-11-16T15:10:02.066Z,12.70
2022-11-16T15:11:07.173Z,12.50
2022-11-16T15:12:35.674Z,12.25
2022-11-16T15:13:37.614Z,12.08
2022-11-16T15:14:48.470Z,12.01
2022-11-16T15:16:07.119Z,11.85
2022-11-16T15:17:09.767Z,11.73
2022-11-16T15:18:18.304Z,11.67
2022-11-16T15:19:19.991Z,11.58
2022-11-16T15:20:24.360Z,11.54
2022-11-16T15:21:26.733Z,11.43
2022-11-16T15:22:39.817Z,11.33
2022-11-16T15:24:02.069Z,11.18
2022-11-16T15:25:50.543Z,11.14
2022-11-16T15:26:52.635Z,11.09
2022-11-16T15:27:55.956Z,11.10
2022-11-16T15:28:57.371Z,11.01
2022-11-16T15:30:02.288Z,10.88
2022-11-16T15:31:05.888Z,10.82
2022-11-16T15:32:15.388Z,10.71
2022-11-16T15:33:19.942Z,10.63
2022-11-16T15:34:25.769Z,10.64
2022-11-16T15:35:32.803Z,10.61
2022-11-16T15:36:40.998Z,10.59
2022-11-16T15:37:42.365Z,10.56
2022-11-16T15:38:43.892Z,10.47
2022-11-16T15:39:45.360Z,10.39
2022-11-16T15:40:51.846Z,10.20
2022-11-16T15:41:58.778Z,9.98
2022-11-16T15:43:05.884Z,10.01
2022-11-16T15:44:14.655Z,10.07
2022-11-16T15:45:25.598Z,10.05
2022-11-16T15:46:29.319Z,10.06
2022-11-16T15:47:30.813Z,10.05
2022-11-16T15:48:33.409Z,10.03
2022-11-16T15:49:40.621Z,9.86
2022-11-16T15:50:57.878Z,9.98
2022-11-16T15:52:01.854Z,9.92
2022-11-16T15:53:03.329Z,9.88
2022-11-16T15:54:24.483Z,9.83
2022-11-16T15:55:35.551Z,9.71
2022-11-16T15:56:41.706Z,9.74
2022-11-16T15:57:46.561Z,9.74
2022-11-16T15:58:49.359Z,9.77
2022-11-16T15:59:56.902Z,9.68
2022-11-16T16:00:59.315Z,9.64
2022-11-16T16:02:01.062Z,9.69
2022-11-16T16:03:07.717Z,9.68
2022-11-16T16:04:15.270Z,9.46
2022-11-16T16:05:23.928Z,9.60
2022-11-16T16:06:46.760Z,9.54
2022-11-16T16:07:48.624Z,9.41
2022-11-16T16:09:04.112Z,9.38
2022-11-16T16:10:22.881Z,9.37
2022-11-16T16:11:26.949Z,9.37
2022-11-16T16:12:29.179Z,9.27
2022-11-16T16:13:33.902Z,9.10
2022-11-16T16:14:35.585Z,9.12
2022-11-16T16:15:40.099Z,9.09
2022-11-16T16:16:41.483Z,8.99
2022-11-16T16:17:46.093Z,9.04
2022-11-16T16:18:47.723Z,9.06
2022-11-16T16:19:59.433Z,9.03
2022-11-16T16:21:02.873Z,8.90
2022-11-16T16:22:12.220Z,9.07
2022-11-16T16:23:18.019Z,9.05
2022-11-16T16:24:34.681Z,8.96
2022-11-16T16:25:36.996Z,8.97
2022-11-16T16:26:38.644Z,8.86
2022-11-16T16:27:44.263Z,8.77
2022-11-16T16:28:46.151Z,8.61
2022-11-16T16:29:49.602Z,8.63
2022-11-16T16:30:51.192Z,8.61
2022-11-16T16:31:52.557Z,8.65
2022-11-16T16:32:57.845Z,8.66
2022-11-16T16:33:59.454Z,8.60
2022-11-16T16:35:03.095Z,8.31
2022-11-16T16:36:04.943Z,8.58
2022-11-16T16:37:09.140Z,8.63
2022-11-16T16:38:13.744Z,8.63
2022-11-16T16:39:15.115Z,8.64
2022-11-16T16:40:17.624Z,8.59
2022-11-16T16:41:24.380Z,8.58
2022-11-16T16:42:26.625Z,8.49
2022-11-16T16:43:28.706Z,8.46
2022-11-16T16:44:30.040Z,8.43
2022-11-16T16:45:44.614Z,8.49
2022-11-16T16:46:45.947Z,8.38
2022-11-16T16:47:47.812Z,8.50
2022-11-16T16:48:49.128Z,8.49
2022-11-16T16:49:50.579Z,8.48
2022-11-16T16:50:55.507Z,8.53
2022-11-16T16:51:56.907Z,8.57
2022-11-16T16:52:58.299Z,8.48
2022-11-16T16:54:00.063Z,8.64
2022-11-16T16:55:01.434Z,8.60
2022-11-16T16:56:03.246Z,8.54
2022-11-16T16:57:04.880Z,8.57
2022-11-16T16:58:06.263Z,8.49
2022-11-16T16:59:07.858Z,8.46
2022-11-16T17:00:12.629Z,8.46
2022-11-16T17:01:14.092Z,8.42
2022-11-16T17:02:16.279Z,8.38
2022-11-16T17:03:20.500Z,8.30
2022-11-16T17:04:21.890Z,8.46
2022-11-16T17:05:23.285Z,8.44
2022-11-16T17:06:24.770Z,8.40
2022-11-16T17:07:26.358Z,8.50
2022-11-16T17:08:32.302Z,8.48
2022-11-16T17:09:33.662Z,8.53
2022-11-16T17:10:38.204Z,8.60
2022-11-16T17:11:39.841Z,8.57
2022-11-16T17:12:41.384Z,8.61
2022-11-16T17:13:46.771Z,8.57
2022-11-16T17:14:51.923Z,8.60
2022-11-16T17:15:53.301Z,8.57
2022-11-16T17:16:54.784Z,8.57
2022-11-16T17:17:58.123Z,8.62
2022-11-16T17:18:59.704Z,8.70
2022-11-16T17:20:01.064Z,8.63
2022-11-16T17:21:07.057Z,8.62
2022-11-16T17:22:08.564Z,8.68
2022-11-16T17:23:09.943Z,8.66
2022-11-16T17:24:11.669Z,8.54
2022-11-16T17:25:13.231Z,8.57
2022-11-16T17:26:14.642Z,8.45
2022-11-16T17:27:16.052Z,8.60
2022-11-16T17:28:17.538Z,8.64
2022-11-16T17:29:18.908Z,8.69
2022-11-16T17:30:20.292Z,8.68
2022-11-16T17:31:21.705Z,8.64
2022-11-16T17:32:23.073Z,8.66
2022-11-16T17:33:24.500Z,8.59
2022-11-16T17:34:25.864Z,8.59
2022-11-16T17:35:27.228Z,8.66
2022-11-16T17:36:28.562Z,8.62
2022-11-16T17:37:29.913Z,8.67
2022-11-16T17:38:34.920Z,8.62
2022-11-16T17:39:36.275Z,8.68
2022-11-16T17:40:40.934Z,8.65
2022-11-16T17:41:42.443Z,8.68
2022-11-16T17:42:43.795Z,8.65
2022-11-16T17:43:46.293Z,8.69
2022-11-16T17:44:47.639Z,8.64
2022-11-16T17:45:51.835Z,8.72
2022-11-16T17:46:53.200Z,8.72
2022-11-16T17:47:54.558Z,8.74
2022-11-16T17:48:56.319Z,8.77
2022-11-16T17:49:57.690Z,8.74
2022-11-16T17:50:59.121Z,8.75
2022-11-16T17:52:01.601Z,8.76
2022-11-16T17:53:05.983Z,8.75
2022-11-16T17:54:07.727Z,8.79
2022-11-16T17:55:09.204Z,8.82
2022-11-16T17:56:12.742Z,8.78
2022-11-16T17:57:14.294Z,8.73
